Time;durP1;ratioP1;P1;durP2;ratioP2;P2;SDS_P1;SDS_P2;PMS_P1;PMS_P2;Temp;Humidity;BMP_temperature;BMP_pressure;BME280_temperature;BME280_humidity;BME280_pressure;Samples;Min_cycle;Max_cycle;Signal;HPM_P1;HPM_P2
2023/07/11 00:01:17;;;;;;;4.68;3.42;;;;;18.10;94586.00;;;;7401174;19;20509;-78
2023/07/11 00:03:52;;;;;;;3.33;2.78;;;;;17.90;94594.00;;;;7399385;19;20707;-79
2023/07/11 00:06:20;;;;;;;4.07;3.15;;;;;18.00;94594.00;;;;7399773;19;20213;-77
2023/07/11 00:08:55;;;;;;;6.90;3.30;;;;;18.20;94582.00;;;;7401559;19;20200;-79
2023/07/11 00:11:31;;;;;;;7.93;3.40;;;;;18.10;94583.00;;;;7401204;19;20133;-78
2023/07/11 00:14:07;;;;;;;3.95;2.95;;;;;18.00;94580.00;;;;7399526;19;20165;-77
2023/07/11 00:16:34;;;;;;;6.38;3.42;;;;;18.00;94579.00;;;;7397437;19;20145;-78
2023/07/11 00:19:10;;;;;;;5.60;3.58;;;;;17.80;94574.00;;;;7400596;19;20136;-77
2023/07/11 00:21:44;;;;;;;5.00;3.05;;;;;18.10;94570.00;;;;7399749;19;20185;-76
2023/07/11 00:24:19;;;;;;;6.32;3.53;;;;;18.20;94573.00;;;;7400208;19;20151;-77
2023/07/11 00:26:46;;;;;;;4.18;3.22;;;;;18.10;94562.00;;;;7400112;19;20148;-80
2023/07/11 00:29:35;;;;;;;4.13;3.47;;;;;18.00;94568.00;;;;7399742;19;20164;-81
2023/07/11 00:32:04;;;;;;;5.07;3.30;;;;;18.10;94567.00;;;;7400408;19;20157;-79
2023/07/11 00:34:39;;;;;;;4.43;3.20;;;;;18.10;94561.00;;;;7400847;19;20147;-78
2023/07/11 00:37:07;;;;;;;8.05;3.42;;;;;18.20;94556.00;;;;7396123;19;20208;-80
2023/07/11 00:39:42;;;;;;;5.07;3.20;;;;;18.10;94556.00;;;;7399371;19;20512;-80
2023/07/11 00:42:10;;;;;;;5.60;3.20;;;;;18.00;94559.00;;;;7399113;19;20214;-80
2023/07/11 00:44:53;;;;;;;6.90;3.25;;;;;17.90;94556.00;;;;7394838;19;20198;-80
2023/07/11 00:47:23;;;;;;;6.03;3.42;;;;;18.00;94556.00;;;;7399037;19;20492;-80
2023/07/11 00:50:05;;;;;;;6.97;3.78;;;;;18.20;94551.00;;;;7395083;19;20156;-79
2023/07/11 00:52:46;;;;;;;6.85;3.10;;;;;18.10;94550.00;;;;7394955;19;20457;-80
2023/07/11 00:55:21;;;;;;;3.97;3.05;;;;;18.00;94542.00;;;;7398760;19;20136;-79
2023/07/11 00:57:55;;;;;;;5.10;2.97;;;;;18.00;94551.00;;;;7399892;19;20129;-79
2023/07/11 01:00:29;;;;;;;6.72;3.03;;;;;17.90;94553.00;;;;7399502;19;20137;-75
2023/07/11 01:02:57;;;;;;;4.00;3.17;;;;;17.90;94551.00;;;;7392617;19;20202;-81
2023/07/11 01:05:32;;;;;;;4.78;3.33;;;;;18.00;94552.00;;;;7399928;19;20148;-85
2023/07/11 01:08:00;;;;;;;4.38;3.08;;;;;17.90;94551.00;;;;7402043;19;20124;-83
2023/07/11 01:10:34;;;;;;;5.25;3.55;;;;;17.90;94549.00;;;;7399886;19;20144;-83
2023/07/11 01:13:04;;;;;;;6.57;3.58;;;;;17.80;94547.00;;;;7398218;19;20144;-81
2023/07/11 01:15:38;;;;;;;4.40;3.35;;;;;17.80;94543.00;;;;7399721;19;20149;-82
2023/07/11 01:18:06;;;;;;;6.38;3.70;;;;;17.80;94543.00;;;;7399062;19;20212;-86
2023/07/11 01:20:34;;;;;;;5.47;3.45;;;;;17.70;94536.00;;;;7400331;19;20125;-80
2023/07/11 01:23:09;;;;;;;3.20;2.90;;;;;17.80;94534.00;;;;7400581;19;20260;-81
2023/07/11 01:25:45;;;;;;;5.88;3.75;;;;;17.70;94542.00;;;;7398821;19;20170;-84
2023/07/11 01:28:20;;;;;;;5.63;3.63;;;;;17.90;94534.00;;;;7398738;19;20149;-81
2023/07/11 01:30:48;;;;;;;3.95;3.22;;;;;18.10;94524.00;;;;7398479;19;20240;-81
2023/07/11 01:33:26;;;;;;;6.47;4.10;;;;;18.20;94519.00;;;;7398360;19;20149;-81
2023/07/11 01:35:55;;;;;;;4.97;3.33;;;;;18.30;94517.00;;;;7397896;19;20137;-83
2023/07/11 01:38:29;;;;;;;7.30;3.55;;;;;18.50;94521.00;;;;7398210;19;20916;-83
2023/07/11 01:40:56;;;;;;;6.88;3.60;;;;;18.50;94515.00;;;;7399837;19;20143;-84
2023/07/11 01:43:31;;;;;;;5.18;3.40;;;;;18.50;94512.00;;;;7398047;19;20148;-85
2023/07/11 01:45:59;;;;;;;4.45;3.58;;;;;18.40;94514.00;;;;7395835;19;20556;-85
2023/07/11 01:48:33;;;;;;;5.35;3.90;;;;;18.40;94513.00;;;;7399092;19;20140;-81
2023/07/11 01:51:01;;;;;;;4.88;3.80;;;;;18.60;94505.00;;;;7397558;19;20161;-85
2023/07/11 01:53:35;;;;;;;4.65;3.17;;;;;18.80;94511.00;;;;7398689;19;21082;-84
2023/07/11 01:56:10;;;;;;;4.45;3.75;;;;;18.70;94509.00;;;;7397605;19;20156;-85
2023/07/11 01:58:44;;;;;;;5.35;3.42;;;;;18.80;94501.00;;;;7400005;19;20157;-83
2023/07/11 02:01:12;;;;;;;4.82;3.95;;;;;18.90;94499.00;;;;7396400;19;20211;-85
2023/07/11 02:03:52;;;;;;;5.75;3.53;;;;;19.10;94498.00;;;;7394777;19;20776;-83
2023/07/11 02:06:20;;;;;;;7.63;3.65;;;;;19.30;94496.00;;;;7395778;19;20192;-85
2023/07/11 02:08:55;;;;;;;6.18;3.47;;;;;19.10;94489.00;;;;7397609;19;20200;-83
2023/07/11 02:11:29;;;;;;;5.05;3.13;;;;;19.00;94490.00;;;;7396752;19;20132;-84
2023/07/11 02:14:04;;;;;;;5.40;3.28;;;;;18.90;94488.00;;;;7397693;19;20619;-83
2023/07/11 02:16:31;;;;;;;4.65;3.50;;;;;18.80;94485.00;;;;7396963;19;20147;-79
2023/07/11 02:19:06;;;;;;;7.13;3.15;;;;;19.20;94481.00;;;;7395146;19;20483;-82
2023/07/11 02:21:42;;;;;;;3.97;3.20;;;;;19.40;94478.00;;;;7397366;19;20196;-80
2023/07/11 02:24:18;;;;;;;6.82;3.47;;;;;19.40;94482.00;;;;7397339;19;20132;-80
2023/07/11 02:26:47;;;;;;;4.78;3.63;;;;;19.50;94481.00;;;;7394394;19;20152;-81
2023/07/11 02:29:21;;;;;;;6.95;3.42;;;;;19.60;94481.00;;;;7395580;19;20754;-79
2023/07/11 02:31:48;;;;;;;4.63;3.25;;;;;19.70;94478.00;;;;7396128;19;20144;-81
2023/07/11 02:34:16;;;;;;;5.25;3.83;;;;;19.90;94463.00;;;;7397382;19;20640;-80
2023/07/11 02:36:51;;;;;;;4.75;3.63;;;;;19.90;94471.00;;;;7394543;19;20136;-81
2023/07/11 02:39:19;;;;;;;6.75;3.63;;;;;19.90;94476.00;;;;7396146;19;20149;-80
2023/07/11 02:41:47;;;;;;;6.85;3.45;;;;;20.00;94476.00;;;;7394411;19;20596;-80
2023/07/11 02:44:21;;;;;;;6.25;3.50;;;;;20.00;94472.00;;;;7396006;19;20604;-80
2023/07/11 02:46:48;;;;;;;8.20;3.50;;;;;20.10;94476.00;;;;7393695;19;20151;-79
2023/07/11 02:49:22;;;;;;;7.30;3.55;;;;;20.10;94469.00;;;;7395308;19;20142;-80
2023/07/11 02:51:50;;;;;;;5.10;3.70;;;;;20.10;94470.00;;;;7394446;19;20562;-81
2023/07/11 02:54:25;;;;;;;6.38;3.97;;;;;20.10;94461.00;;;;7394381;19;20519;-80
2023/07/11 02:56:52;;;;;;;6.53;3.78;;;;;20.10;94463.00;;;;7395511;19;20141;-80
2023/07/11 02:59:27;;;;;;;5.43;3.72;;;;;20.10;94465.00;;;;7395115;19;20140;-79
2023/07/11 03:02:09;;;;;;;5.78;3.72;;;;;20.10;94455.00;;;;7392375;19;20184;-79
2023/07/11 03:04:51;;;;;;;5.50;4.10;;;;;20.00;94459.00;;;;7394648;19;20148;-79
2023/07/11 03:07:26;;;;;;;6.00;4.25;;;;;20.00;94459.00;;;;7395470;19;20125;-80
2023/07/11 03:10:00;;;;;;;10.35;4.90;;;;;19.90;94462.00;;;;7393915;19;20561;-79
2023/07/11 03:12:34;;;;;;;12.73;6.80;;;;;19.90;94453.00;;;;7393016;19;20160;-80
2023/07/11 03:15:09;;;;;;;15.23;8.68;;;;;20.00;94455.00;;;;7394663;19;20306;-79
2023/07/11 03:17:43;;;;;;;12.63;8.30;;;;;20.10;94445.00;;;;7395038;19;20492;-81
2023/07/11 03:20:17;;;;;;;13.75;8.57;;;;;20.00;94441.00;;;;7395781;19;20133;-80
2023/07/11 03:22:46;;;;;;;14.05;8.82;;;;;20.00;94444.00;;;;7391850;19;20536;-77
2023/07/11 03:25:20;;;;;;;16.25;10.38;;;;;20.00;94444.00;;;;7395257;19;20149;-79
2023/07/11 03:27:47;;;;;;;22.02;12.55;;;;;20.10;94447.00;;;;7391931;19;20137;-80
2023/07/11 03:30:15;;;;;;;17.42;10.82;;;;;20.10;94438.00;;;;7395714;19;20137;-82
2023/07/11 03:32:49;;;;;;;21.13;11.65;;;;;20.10;94438.00;;;;7396198;19;20588;-82
2023/07/11 03:35:17;;;;;;;17.35;10.93;;;;;20.20;94432.00;;;;7395435;19;20442;-79
2023/07/11 03:37:52;;;;;;;15.07;9.95;;;;;20.20;94424.00;;;;7394362;19;20140;-83
2023/07/11 03:40:27;;;;;;;18.50;10.80;;;;;20.10;94438.00;;;;7395331;19;20588;-81
2023/07/11 03:43:01;;;;;;;14.93;9.18;;;;;20.00;94422.00;;;;7391785;19;20488;-83
2023/07/11 03:45:28;;;;;;;13.82;10.15;;;;;20.10;94435.00;;;;7392590;19;20168;-82
2023/07/11 03:47:57;;;;;;;15.52;9.20;;;;;20.30;94428.00;;;;7392827;19;20129;-80
2023/07/11 03:50:31;;;;;;;12.77;7.35;;;;;20.40;94425.00;;;;7395779;19;20588;-81
2023/07/11 03:52:58;;;;;;;12.98;8.05;;;;;20.30;94429.00;;;;7394846;19;20573;-83
2023/07/11 03:55:33;;;;;;;14.38;7.75;;;;;20.20;94425.00;;;;7395278;19;20137;-83
2023/07/11 03:58:02;;;;;;;12.85;6.82;;;;;20.10;94425.00;;;;7399915;19;20162;-82
2023/07/11 04:00:30;;;;;;;14.60;7.35;;;;;20.10;94414.00;;;;7401885;19;20161;-84
2023/07/11 04:03:17;;;;;;;21.27;7.57;;;;;20.20;94409.00;;;;7398634;19;20161;-84
2023/07/11 04:05:54;;;;;;;12.00;7.32;;;;;20.20;94424.00;;;;7401614;19;20612;-82
2023/07/11 04:08:29;;;;;;;10.65;6.57;;;;;20.20;94423.00;;;;7401763;19;20189;-81
2023/07/11 04:11:00;;;;;;;8.07;6.03;;;;;20.20;94421.00;;;;7399831;19;20162;-81
2023/07/11 04:13:34;;;;;;;9.48;5.53;;;;;20.20;94421.00;;;;7404423;19;20240;-83
2023/07/11 04:16:02;;;;;;;8.98;6.00;;;;;20.30;94419.00;;;;7401472;19;20476;-83
2023/07/11 04:18:36;;;;;;;8.88;5.93;;;;;20.30;94419.00;;;;7401737;19;20178;-81
2023/07/11 04:21:10;;;;;;;7.80;4.97;;;;;20.40;94418.00;;;;7402714;19;20133;-81
2023/07/11 04:23:46;;;;;;;8.30;5.10;;;;;20.50;94418.00;;;;7400278;19;20128;-81
2023/07/11 04:26:22;;;;;;;7.18;5.07;;;;;20.60;94415.00;;;;7403365;19;20136;-82
2023/07/11 04:28:57;;;;;;;8.35;5.35;;;;;20.50;94410.00;;;;7401540;19;20596;-83
2023/07/11 04:31:31;;;;;;;7.47;4.80;;;;;20.60;94415.00;;;;7396327;19;20151;-79
2023/07/11 04:34:05;;;;;;;9.55;4.93;;;;;20.70;94406.00;;;;7399956;19;20128;-81
2023/07/11 04:36:33;;;;;;;7.82;4.80;;;;;20.60;94415.00;;;;7401972;19;20145;-77
2023/07/11 04:39:07;;;;;;;12.60;4.90;;;;;20.70;94413.00;;;;7401335;19;20592;-76
2023/07/11 04:41:41;;;;;;;6.38;4.40;;;;;20.60;94412.00;;;;7399510;19;20129;-78
2023/07/11 04:44:15;;;;;;;7.07;5.05;;;;;20.70;94412.00;;;;7371130;19;20220;-78
2023/07/11 04:46:43;;;;;;;7.75;4.22;;;;;20.60;94416.00;;;;7388020;19;20188;-76
2023/07/11 04:49:17;;;;;;;7.28;4.40;;;;;20.70;94419.00;;;;7387439;19;20527;-77
2023/07/11 04:51:51;;;;;;;8.48;4.72;;;;;20.80;94417.00;;;;7388935;19;20494;-76
2023/07/11 04:54:25;;;;;;;5.75;4.30;;;;;20.80;94424.00;;;;7387693;19;20160;-77
2023/07/11 04:56:58;;;;;;;6.60;4.35;;;;;20.90;94419.00;;;;7387880;19;20340;-77
2023/07/11 04:59:32;;;;;;;5.65;4.38;;;;;20.90;94413.00;;;;7387230;19;22612;-78
2023/07/11 05:02:00;;;;;;;6.70;4.30;;;;;21.00;94408.00;;;;7388460;19;20624;-78
2023/07/11 05:04:31;;;;;;;8.63;4.30;;;;;21.10;94414.00;;;;7385661;19;20187;-78
2023/07/11 05:07:06;;;;;;;5.10;4.07;;;;;21.20;94406.00;;;;7387540;19;20140;-78
2023/07/11 05:09:36;;;;;;;8.65;4.00;;;;;21.40;94403.00;;;;7389491;19;20129;-78
2023/07/11 05:12:26;;;;;;;5.45;4.18;;;;;21.40;94401.00;;;;7387820;19;20599;-77
2023/07/11 05:14:55;;;;;;;5.47;4.15;;;;;21.50;94401.00;;;;7386346;19;20149;-78
2023/07/11 05:17:29;;;;;;;7.40;3.88;;;;;21.60;94401.00;;;;7386668;19;20754;-78
2023/07/11 05:19:57;;;;;;;5.18;3.88;;;;;21.70;94395.00;;;;7387218;19;20124;-78
2023/07/11 05:22:31;;;;;;;7.25;3.88;;;;;21.80;94391.00;;;;7386706;19;20478;-78
2023/07/11 05:25:05;;;;;;;5.43;3.80;;;;;21.90;94397.00;;;;7387480;19;20125;-77
2023/07/11 05:27:39;;;;;;;13.43;3.55;;;;;22.10;94391.00;;;;7386231;19;20605;-77
2023/07/11 05:30:14;;;;;;;6.55;3.90;;;;;22.20;94385.00;;;;7388460;19;20181;-77
2023/07/11 05:32:48;;;;;;;9.85;4.30;;;;;22.20;94379.00;;;;7389095;19;20604;-78
2023/07/11 05:35:16;;;;;;;4.97;3.63;;;;;22.40;94376.00;;;;7386975;19;20148;-78
2023/07/11 05:37:50;;;;;;;5.32;3.65;;;;;22.50;94378.00;;;;7387675;19;20135;-78
2023/07/11 05:40:18;;;;;;;6.00;4.18;;;;;22.60;94384.00;;;;7388822;19;21083;-79
2023/07/11 05:42:54;;;;;;;5.75;4.38;;;;;22.70;94389.00;;;;7385762;19;20135;-79
2023/07/11 05:45:21;;;;;;;5.82;4.07;;;;;22.80;94381.00;;;;7386248;19;20161;-78
2023/07/11 05:47:58;;;;;;;5.35;3.97;;;;;23.00;94380.00;;;;7387928;19;20120;-83
2023/07/11 05:50:26;;;;;;;6.78;4.40;;;;;23.20;94389.00;;;;7390731;19;20167;-81
2023/07/11 05:53:01;;;;;;;8.00;4.47;;;;;23.30;94381.00;;;;7387990;19;20148;-83
2023/07/11 05:55:36;;;;;;;5.38;4.05;;;;;23.40;94372.00;;;;7388948;19;20878;-81
2023/07/11 05:58:10;;;;;;;5.43;4.25;;;;;23.60;94370.00;;;;7387386;19;20155;-81
2023/07/11 06:00:40;;;;;;;10.73;4.78;;;;;23.80;94374.00;;;;7387300;19;20215;-79
2023/07/11 06:03:10;;;;;;;9.10;4.43;;;;;23.90;94369.00;;;;7386528;19;20188;-81
2023/07/11 06:05:53;;;;;;;7.10;4.85;;;;;24.10;94367.00;;;;7384491;19;20207;-80
2023/07/11 06:08:45;;;;;;;6.47;4.50;;;;;24.30;94363.00;;;;7389339;19;20469;-80
2023/07/11 06:11:26;;;;;;;5.55;4.45;;;;;24.40;94363.00;;;;7387816;19;20188;-80
2023/07/11 06:13:56;;;;;;;6.80;4.30;;;;;24.50;94362.00;;;;7383790;19;20502;-80
2023/07/11 06:16:30;;;;;;;5.30;4.05;;;;;24.70;94368.00;;;;7385547;19;20634;-79
2023/07/11 06:18:58;;;;;;;6.70;4.30;;;;;25.10;94367.00;;;;7385164;19;20133;-81
2023/07/11 06:21:33;;;;;;;5.65;4.70;;;;;25.00;94367.00;;;;7388112;19;20140;-81
2023/07/11 06:24:01;;;;;;;6.00;4.55;;;;;25.30;94359.00;;;;7385203;19;20592;-80
2023/07/11 06:26:35;;;;;;;9.23;4.20;;;;;25.50;94353.00;;;;7384672;19;20152;-80
2023/07/11 06:29:09;;;;;;;6.15;4.40;;;;;25.80;94350.00;;;;7386123;19;20522;-83
2023/07/11 06:31:45;;;;;;;4.82;4.25;;;;;25.90;94354.00;;;;7387503;19;20562;-84
2023/07/11 06:34:13;;;;;;;4.95;4.20;;;;;26.20;94352.00;;;;7380908;19;20140;-81
2023/07/11 06:36:48;;;;;;;4.68;4.10;;;;;26.20;94356.00;;;;7387035;19;20138;-82
2023/07/11 06:39:23;;;;;;;6.45;4.63;;;;;26.60;94354.00;;;;7385344;19;20136;-80
2023/07/11 06:41:58;;;;;;;7.53;4.47;;;;;26.50;94355.00;;;;7385848;19;20230;-76
2023/07/11 06:44:32;;;;;;;5.95;4.20;;;;;26.40;94354.00;;;;7386073;19;20153;-80
2023/07/11 06:46:59;;;;;;;4.55;4.15;;;;;26.40;94354.00;;;;7384539;19;20145;-81
2023/07/11 06:49:35;;;;;;;6.40;4.30;;;;;26.30;94358.00;;;;7384095;19;20618;-80
2023/07/11 06:52:03;;;;;;;8.05;4.50;;;;;26.40;94347.00;;;;7382826;19;20584;-80
2023/07/11 06:54:37;;;;;;;6.82;4.55;;;;;26.10;94353.00;;;;7385501;19;20587;-79
2023/07/11 06:57:11;;;;;;;8.05;4.88;;;;;26.20;94350.00;;;;7384403;19;20607;-78
2023/07/11 06:59:47;;;;;;;6.63;5.00;;;;;26.20;94348.00;;;;7384711;19;20604;-76
2023/07/11 07:02:14;;;;;;;5.43;4.47;;;;;26.30;94347.00;;;;7384347;19;20623;-76
2023/07/11 07:04:55;;;;;;;7.22;4.65;;;;;26.40;94349.00;;;;7383211;19;20178;-78
2023/07/11 07:07:23;;;;;;;5.47;4.55;;;;;26.50;94346.00;;;;7384301;19;20200;-76
2023/07/11 07:09:58;;;;;;;5.32;4.57;;;;;26.40;94347.00;;;;7382370;19;20149;-76
2023/07/11 07:12:33;;;;;;;5.35;4.57;;;;;26.40;94347.00;;;;7385631;19;20132;-77
2023/07/11 07:15:08;;;;;;;6.63;4.82;;;;;26.60;94339.00;;;;7385348;19;20128;-80
2023/07/11 07:17:36;;;;;;;7.30;4.75;;;;;26.70;94343.00;;;;7383444;19;20156;-79
2023/07/11 07:20:12;;;;;;;5.75;4.38;;;;;26.90;94339.00;;;;7384864;19;20132;-80
2023/07/11 07:22:42;;;;;;;6.20;4.55;;;;;26.90;94340.00;;;;7384627;19;20155;-78
2023/07/11 07:25:16;;;;;;;9.23;4.70;;;;;26.90;94335.00;;;;7381982;19;20137;-78
2023/07/11 07:27:51;;;;;;;7.68;4.80;;;;;27.30;94344.00;;;;7382583;19;20155;-80
2023/07/11 07:30:21;;;;;;;7.60;4.43;;;;;27.40;94345.00;;;;7382914;19;20157;-78
2023/07/11 07:32:57;;;;;;;4.93;4.32;;;;;27.60;94339.00;;;;7390557;19;20687;-80
2023/07/11 07:35:24;;;;;;;5.30;4.60;;;;;27.60;94338.00;;;;7388233;19;20523;-78
2023/07/11 07:37:59;;;;;;;7.28;5.35;;;;;27.60;94337.00;;;;7391843;19;20140;-78
2023/07/11 07:40:28;;;;;;;5.43;4.50;;;;;27.60;94340.00;;;;7391257;19;20166;-78
2023/07/11 07:43:08;;;;;;;8.32;5.03;;;;;27.60;94343.00;;;;7391332;19;20148;-76
2023/07/11 07:45:47;;;;;;;5.78;4.88;;;;;27.60;94335.00;;;;7389668;19;20140;-76
2023/07/11 07:48:23;;;;;;;7.13;5.25;;;;;27.60;94338.00;;;;7390447;19;20169;-79
2023/07/11 07:50:52;;;;;;;6.38;4.90;;;;;27.90;94330.00;;;;7390467;19;20159;-76
2023/07/11 07:53:20;;;;;;;8.98;5.22;;;;;28.00;94327.00;;;;7393818;19;20137;-80
2023/07/11 07:55:54;;;;;;;7.68;5.47;;;;;28.20;94324.00;;;;7392254;19;20183;-76
2023/07/11 07:58:21;;;;;;;6.72;4.72;;;;;28.30;94320.00;;;;7390874;19;20125;-77
2023/07/11 08:01:04;;;;;;;7.13;5.50;;;;;28.20;94330.00;;;;7390222;19;20429;-78
2023/07/11 08:03:45;;;;;;;5.78;5.20;;;;;28.30;94319.00;;;;7390147;19;20519;-79
2023/07/11 08:06:20;;;;;;;6.85;5.07;;;;;28.40;94328.00;;;;7393049;19;20197;-80
2023/07/11 08:08:49;;;;;;;10.57;5.68;;;;;28.50;94321.00;;;;7389791;19;20149;-82
2023/07/11 08:11:24;;;;;;;5.63;5.00;;;;;28.60;94319.00;;;;7390466;19;20155;-79
2023/07/11 08:13:52;;;;;;;7.50;5.25;;;;;28.60;94318.00;;;;7392773;19;20596;-79
2023/07/11 08:16:28;;;;;;;6.78;4.88;;;;;28.80;94305.00;;;;7392996;19;20520;-79
2023/07/11 08:19:04;;;;;;;6.95;5.20;;;;;28.80;94310.00;;;;7389310;19;20512;-79
2023/07/11 08:21:39;;;;;;;6.00;5.40;;;;;28.80;94313.00;;;;7389430;19;20528;-80
2023/07/11 08:24:13;;;;;;;8.43;5.57;;;;;29.00;94305.00;;;;7388681;19;20161;-79
2023/07/11 08:26:41;;;;;;;7.68;4.90;;;;;29.30;94305.00;;;;7390282;19;20152;-80
2023/07/11 08:29:16;;;;;;;9.32;5.40;;;;;29.70;94305.00;;;;7390061;19;20182;-81
2023/07/11 08:31:58;;;;;;;6.03;4.90;;;;;29.30;94297.00;;;;7389403;19;20135;-79
2023/07/11 08:34:33;;;;;;;8.38;5.15;;;;;29.30;94299.00;;;;7388906;19;20524;-78
2023/07/11 08:37:01;;;;;;;6.18;4.78;;;;;29.40;94299.00;;;;7387397;19;20137;-79
2023/07/11 08:39:28;;;;;;;6.43;5.20;;;;;29.40;94291.00;;;;7389238;19;20149;-79
2023/07/11 08:42:15;;;;;;;6.32;5.07;;;;;29.30;94286.00;;;;7389065;19;20128;-81
2023/07/11 08:45:13;;;;;;;9.70;5.07;;;;;29.60;94292.00;;;;7391337;19;20125;-80
2023/07/11 08:48:13;;;;;;;13.98;5.63;;;;;30.00;94284.00;;;;7389420;19;20125;-78
2023/07/11 08:51:20;;;;;;;6.93;5.40;;;;;30.10;94277.00;;;;7390712;19;20479;-79
2023/07/11 08:54:23;;;;;;;8.57;4.95;;;;;30.20;94275.00;;;;7387328;19;20136;-79
2023/07/11 08:56:51;;;;;;;8.07;5.28;;;;;30.20;94279.00;;;;7389247;19;20644;-79
2023/07/11 08:59:41;;;;;;;6.88;6.03;;;;;30.10;94261.00;;;;7388621;19;20148;-79
2023/07/11 09:02:09;;;;;;;6.57;5.82;;;;;30.40;94266.00;;;;7390252;19;20148;-81
2023/07/11 09:04:58;;;;;;;7.95;5.50;;;;;30.80;94260.00;;;;7386632;19;20656;-80
2023/07/11 09:07:38;;;;;;;6.55;5.95;;;;;31.00;94257.00;;;;7389186;19;20136;-83
2023/07/11 09:10:42;;;;;;;12.15;5.55;;;;;30.80;94265.00;;;;7389292;19;20156;-84
2023/07/11 09:13:27;;;;;;;11.23;5.60;;;;;31.30;94255.00;;;;7391194;19;20143;-83
2023/07/11 09:16:22;;;;;;;6.70;5.32;;;;;31.50;94241.00;;;;7388957;19;20152;-82
2023/07/11 09:18:55;;;;;;;9.43;5.95;;;;;31.90;94249.00;;;;7388983;19;20607;-81
2023/07/11 09:21:36;;;;;;;7.45;5.93;;;;;32.20;94241.00;;;;7387458;19;20156;-80
2023/07/11 09:24:18;;;;;;;7.40;5.80;;;;;32.60;94235.00;;;;7388966;19;20167;-79
2023/07/11 09:26:55;;;;;;;6.50;5.38;;;;;33.00;94226.00;;;;7388818;19;20608;-80
2023/07/11 09:29:23;;;;;;;6.28;5.68;;;;;33.40;94243.00;;;;7387141;19;20135;-79
2023/07/11 09:32:00;;;;;;;6.22;5.35;;;;;33.20;94225.00;;;;7386297;19;20136;-79
2023/07/11 09:34:40;;;;;;;9.35;5.80;;;;;33.40;94235.00;;;;7387359;19;20168;-79
2023/07/11 09:37:28;;;;;;;7.72;5.93;;;;;33.30;94232.00;;;;7387751;19;20146;-80
2023/07/11 09:40:10;;;;;;;13.05;5.47;;;;;33.00;94224.00;;;;7386547;19;20136;-80
2023/07/11 09:42:43;;;;;;;7.78;5.57;;;;;33.10;94237.00;;;;7387508;19;20548;-79
2023/07/11 09:45:20;;;;;;;9.05;5.85;;;;;33.10;94249.00;;;;7388780;19;20191;-78
2023/07/11 09:48:14;;;;;;;6.30;5.35;;;;;32.10;94233.00;;;;7385691;19;20159;-77
2023/07/11 09:51:07;;;;;;;6.90;6.13;;;;;33.10;94256.00;;;;7386283;19;20125;-79
2023/07/11 09:53:45;;;;;;;8.75;5.63;;;;;32.10;94262.00;;;;7383756;19;20503;-78
2023/07/11 09:56:20;;;;;;;6.05;5.40;;;;;32.10;94256.00;;;;7382898;19;20619;-77
2023/07/11 09:59:02;;;;;;;6.50;5.70;;;;;31.60;94266.00;;;;7386252;19;20186;-77
2023/07/11 10:01:37;;;;;;;11.80;5.75;;;;;31.00;94260.00;;;;7387738;19;20148;-78
2023/07/11 10:04:15;;;;;;;6.25;5.40;;;;;31.00;94264.00;;;;7386189;19;20176;-77
2023/07/11 10:07:00;;;;;;;11.25;5.78;;;;;31.00;94265.00;;;;7387984;19;20597;-77
2023/07/11 10:09:33;;;;;;;7.15;5.45;;;;;30.90;94258.00;;;;7388392;19;20482;-77
2023/07/11 10:12:20;;;;;;;9.52;5.82;;;;;30.90;94261.00;;;;7388053;19;20148;-78
2023/07/11 10:15:01;;;;;;;7.20;5.50;;;;;30.40;94262.00;;;;7386253;19;20172;-80
2023/07/11 10:17:36;;;;;;;10.10;5.80;;;;;30.30;94260.00;;;;7386635;19;20734;-79
2023/07/11 10:20:11;;;;;;;11.30;5.47;;;;;30.50;94255.00;;;;7383258;19;20148;-79
2023/07/11 10:23:01;;;;;;;6.38;5.28;;;;;30.80;94259.00;;;;7385162;19;20482;-76
2023/07/11 10:25:31;;;;;;;8.43;5.88;;;;;31.00;94222.00;;;;7386380;19;20201;-77
2023/07/11 10:28:25;;;;;;;8.32;5.75;;;;;32.60;94215.00;;;;7385844;19;20152;-77
2023/07/11 10:31:10;;;;;;;8.35;5.68;;;;;33.90;94207.00;;;;7385387;19;20189;-76
2023/07/11 10:33:56;;;;;;;6.05;5.50;;;;;34.30;94203.00;;;;7387427;19;20592;-77
2023/07/11 10:36:46;;;;;;;9.70;5.78;;;;;34.60;94186.00;;;;7385834;19;20163;-78
2023/07/11 10:39:43;;;;;;;6.28;5.32;;;;;34.70;94219.00;;;;7384808;19;20216;-78
2023/07/11 10:42:30;;;;;;;7.03;5.55;;;;;34.00;94187.00;;;;7382419;19;20152;-78
2023/07/11 10:45:24;;;;;;;6.88;5.45;;;;;34.40;94222.00;;;;7386723;19;20802;-78
2023/07/11 10:48:34;;;;;;;6.95;5.93;;;;;33.80;94179.00;;;;7388045;19;20678;-77
2023/07/11 10:51:18;;;;;;;9.48;5.90;;;;;34.50;94182.00;;;;7386557;19;20139;-80
2023/07/11 10:54:24;;;;;;;11.63;6.32;;;;;34.60;94221.00;;;;7384969;19;20203;-77
2023/07/11 10:57:06;;;;;;;6.80;5.97;;;;;33.20;94177.00;;;;7384664;19;20165;-76
2023/07/11 10:59:40;;;;;;;7.90;6.10;;;;;33.70;94172.00;;;;7387570;19;20638;-80
2023/07/11 11:02:46;;;;;;;7.32;5.88;;;;;35.00;94165.00;;;;7385617;19;20172;-77
2023/07/11 11:05:47;;;;;;;9.27;5.97;;;;;35.70;94168.00;;;;7391577;19;20538;-76
2023/07/11 11:08:25;;;;;;;8.82;6.28;;;;;36.20;94156.00;;;;7399998;19;20128;-76
2023/07/11 11:11:28;;;;;;;8.07;5.97;;;;;36.00;94195.00;;;;7398654;19;20617;-77
2023/07/11 11:14:10;;;;;;;6.72;5.63;;;;;34.00;94196.00;;;;7400269;19;20142;-77
2023/07/11 11:16:56;;;;;;;8.65;6.30;;;;;34.50;94148.00;;;;7397776;19;20223;-77
2023/07/11 11:20:05;;;;;;;6.13;5.45;;;;;35.70;94139.00;;;;7397337;19;20173;-77
2023/07/11 11:23:04;;;;;;;7.32;5.68;;;;;36.00;94176.00;;;;7398765;19;20176;-78
2023/07/11 11:25:57;;;;;;;9.40;5.70;;;;;35.80;94165.00;;;;7398569;19;20173;-78
2023/07/11 11:28:41;;;;;;;10.32;6.18;;;;;33.80;94171.00;;;;7397777;19;20157;-79
2023/07/11 11:31:09;;;;;;;6.70;5.88;;;;;33.60;94136.00;;;;7398020;19;20291;-78
2023/07/11 11:34:13;;;;;;;11.30;6.53;;;;;34.00;94124.00;;;;7399077;19;20138;-78
2023/07/11 11:37:14;;;;;;;7.93;5.50;;;;;33.80;94178.00;;;;7399096;19;20526;-78
2023/07/11 11:40:03;;;;;;;10.68;6.45;;;;;33.90;94158.00;;;;7400607;19;20644;-77
2023/07/11 11:42:34;;;;;;;7.18;5.70;;;;;33.90;94165.00;;;;7401125;19;20128;-77
2023/07/11 11:45:18;;;;;;;7.80;6.38;;;;;32.60;94169.00;;;;7399243;19;20586;-76
2023/07/11 11:47:51;;;;;;;9.55;6.30;;;;;32.10;94169.00;;;;7398951;19;20616;-77
2023/07/11 11:50:31;;;;;;;7.80;7.00;;;;;31.90;94169.00;;;;7397092;19;20586;-77
2023/07/11 11:53:31;;;;;;;6.93;6.20;;;;;32.40;94119.00;;;;7395566;19;20479;-78
2023/07/11 11:56:07;;;;;;;7.45;6.35;;;;;34.30;94126.00;;;;7397118;19;20192;-75
2023/07/11 11:58:51;;;;;;;8.05;6.30;;;;;35.10;94100.00;;;;7395595;19;20182;-77
2023/07/11 12:01:37;;;;;;;12.88;6.28;;;;;33.80;94147.00;;;;7397291;19;20595;-77
2023/07/11 12:04:35;;;;;;;9.68;6.70;;;;;34.10;94132.00;;;;7397111;19;20156;-76
2023/07/11 12:07:18;;;;;;;12.98;6.20;;;;;35.20;94098.00;;;;7397681;19;20133;-74
2023/07/11 12:10:01;;;;;;;9.63;5.70;;;;;35.80;94086.00;;;;7396332;19;20145;-77
2023/07/11 12:12:40;;;;;;;7.03;6.07;;;;;36.40;94081.00;;;;7398481;19;20128;-76
2023/07/11 12:15:20;;;;;;;7.57;6.72;;;;;38.00;94077.00;;;;7396161;19;20499;-76
2023/07/11 12:17:54;;;;;;;6.22;5.63;;;;;38.90;94078.00;;;;7389325;19;20489;-78
2023/07/11 12:20:27;;;;;;;9.55;6.13;;;;;39.40;94073.00;;;;7390513;19;20580;-76
2023/07/11 12:23:01;;;;;;;11.52;5.78;;;;;38.80;94080.00;;;;7391241;19;20153;-79
2023/07/11 12:26:22;;;;;;;6.18;5.63;;;;;37.90;94081.00;;;;7389963;19;20492;-77
2023/07/11 12:29:30;;;;;;;7.15;5.88;;;;;37.90;94117.00;;;;7391701;19;20136;-75
2023/07/11 12:32:32;;;;;;;9.45;6.38;;;;;35.90;94080.00;;;;7390470;19;20140;-76
2023/07/11 12:35:06;;;;;;;9.27;5.63;;;;;36.60;94118.00;;;;7385224;19;20136;-78
2023/07/11 12:38:01;;;;;;;6.30;5.55;;;;;34.20;94076.00;;;;7390401;19;20536;-80
2023/07/11 12:40:46;;;;;;;9.65;5.78;;;;;35.00;94108.00;;;;7390299;19;20452;-75
2023/07/11 12:43:23;;;;;;;10.38;6.25;;;;;32.80;94109.00;;;;7392271;19;20620;-76
2023/07/11 12:46:07;;;;;;;8.07;6.15;;;;;33.00;94112.00;;;;7388930;19;20482;-76
2023/07/11 12:48:45;;;;;;;8.35;6.28;;;;;32.10;94105.00;;;;7389172;19;20580;-76
2023/07/11 12:51:33;;;;;;;7.47;6.22;;;;;33.00;94053.00;;;;7390002;19;20148;-76
2023/07/11 12:54:16;;;;;;;7.60;6.05;;;;;34.90;94062.00;;;;7387102;19;20136;-76
2023/07/11 12:56:52;;;;;;;7.72;6.30;;;;;34.10;94080.00;;;;7389510;19;20132;-76
2023/07/11 12:59:30;;;;;;;6.82;5.13;;;;;34.80;94044.00;;;;7389072;19;20260;-76
2023/07/11 13:02:06;;;;;;;10.63;5.88;;;;;35.80;94076.00;;;;7390119;19;20244;-77
2023/07/11 13:04:45;;;;;;;7.07;6.28;;;;;35.80;94029.00;;;;7388295;19;20559;-77